Aviation Digital Data Service (ADDS)

Output produced by METARs form (2057 UTC 26 April 2015)
found at http://aviationweather.gov/adds/metars/
 
KFDY 261927Z 2619/2718 02012G20KT P6SM SCT050 
     FM270100 02006KT P6SM BKN050 
     FM270800 31005KT P6SM OVC050 
     FM271400 33012KT P6SM OVC025